Aviation Digital Data Service (ADDS)

Output produced by METARs form (0720 UTC 22 August 2017)
found at http://aviationweather.gov/adds/metars/
 
KSWF 220548Z 2206/2312 23005KT P6SM SCT040 SCT250 
     FM220800 25005KT 5SM BR VCSH SCT015 SCT250 
     TEMPO 2209/2213 BKN015 
     FM221400 25010KT P6SM FEW025 BKN250 
     FM221600 23013G20KT P6SM SCT050 BKN250 
     FM222000 23015G25KT P6SM SCT050 BKN250 
     FM222300 23012G18KT 6SM SHRA VCTS FEW020 BKN050CB 
     PROB30 2302/2306 5SM TSRA BKN025 BKN050CB 
     FM230600 27010KT P6SM VCSH SCT025 BKN040